Hovedside
METAR-TAF:

METAR-TAF

Lufthavner :

Uherské Hradiště, Tsjekkia

breddegrad: 49-01-46N, lengdegrad: 017-26-23E, høyde over havet: 177 m

Gjeldene værobservasjon

Denne rapporten ble laget for 13 timer og 7 minutter siden, klokken 16:00 UTC
Vind 5 kt fra Nord-nordvest, skiftende mellom Vest og Nord-nordøst
Temperatur 30°C
Luftfuktighet 35%
Trykk 1008 hPa
Sikt 10 km eller mer
ingen skyer under 1500 m og ingen bygeskyer

METAR: LKKU 211600Z 33005KT 280V020 CAVOK 30/13 Q1008

Tid: 07:07 (05:07 UTC)


TAF: fraværende

Værobservasjoner og værvarsel for over 4000 flyplasser (METAR- og TAF-rapporter).

Tilgjengelige stasjoner er representert av de røde og gule prikkene på kartet.

Hold musepekeren over prikken for å se navnet på stasjonen.

Klikk så for å se værobservasjoner og -varsler.

For å forandre kartet kan du klikke på den grønne knappen med svart kryss for å zoome inn, på den grønne knappen med strek for å zoome ut, eller på de grønne pilene for å se tilstøtende kart.


METAR-TAF: